Time;durP1;ratioP1;P1;durP2;ratioP2;P2;SDS_P1;SDS_P2;PMS_P1;PMS_P2;Temp;Humidity;BMP_temperature;BMP_pressure;BME280_temperature;BME280_humidity;BME280_pressure;Samples;Min_cycle;Max_cycle;Signal;HPM_P1;HPM_P2
2024/01/31 00:00:52;;;;;;;;;28.33;24.67;;;;;;;;5073911;28;46057;-72
2024/01/31 00:03:17;;;;;;;;;26.00;22.00;;;;;;;;5040352;28;45599;-72
2024/01/31 00:05:42;;;;;;;;;25.00;22.67;;;;;;;;5056693;28;45477;-71
2024/01/31 00:08:07;;;;;;;;;33.67;28.00;;;;;;;;5045210;28;46158;-71
2024/01/31 00:10:33;;;;;;;;;28.00;25.33;;;;;;;;5037083;28;46046;-71
2024/01/31 00:12:58;;;;;;;;;23.00;19.33;;;;;;;;5052379;28;45402;-72
2024/01/31 00:15:23;;;;;;;;;24.00;19.33;;;;;;;;5073476;28;45657;-73
2024/01/31 00:17:48;;;;;;;;;25.00;20.33;;;;;;;;5062576;28;45519;-71
2024/01/31 00:20:14;;;;;;;;;18.00;17.00;;;;;;;;5066234;28;46217;-73
2024/01/31 00:22:42;;;;;;;;;25.33;18.33;;;;;;;;5061253;28;45395;-74
2024/01/31 00:25:07;;;;;;;;;15.67;15.00;;;;;;;;5049996;28;45408;-71
2024/01/31 00:27:33;;;;;;;;;15.33;13.67;;;;;;;;5065618;28;45428;-72
2024/01/31 00:29:58;;;;;;;;;19.33;16.67;;;;;;;;5063953;28;45720;-72
2024/01/31 00:32:23;;;;;;;;;26.67;22.00;;;;;;;;5019312;28;45439;-70
2024/01/31 00:34:48;;;;;;;;;22.33;20.67;;;;;;;;5062154;28;45368;-69
2024/01/31 00:37:14;;;;;;;;;20.67;16.67;;;;;;;;5049907;28;46195;-70
2024/01/31 00:39:41;;;;;;;;;18.33;18.33;;;;;;;;5074516;28;45972;-70
2024/01/31 00:42:07;;;;;;;;;20.00;19.00;;;;;;;;5072657;28;45746;-71
2024/01/31 00:44:32;;;;;;;;;24.00;19.00;;;;;;;;5051659;28;45603;-73
2024/01/31 00:46:58;;;;;;;;;19.00;16.00;;;;;;;;5054591;28;46034;-74
2024/01/31 00:49:23;;;;;;;;;24.00;21.33;;;;;;;;5055098;28;45814;-73
2024/01/31 00:51:48;;;;;;;;;30.33;28.33;;;;;;;;5070425;28;45745;-72
2024/01/31 00:54:13;;;;;;;;;30.33;23.33;;;;;;;;5059975;28;45359;-71
2024/01/31 00:56:41;;;;;;;;;26.67;23.33;;;;;;;;5073989;28;45538;-70
2024/01/31 00:59:07;;;;;;;;;34.33;27.00;;;;;;;;5046852;28;45998;-71
2024/01/31 01:01:32;;;;;;;;;23.33;19.67;;;;;;;;5073837;28;45345;-71
2024/01/31 01:03:57;;;;;;;;;20.67;20.00;;;;;;;;5052745;28;45835;-71
2024/01/31 01:06:22;;;;;;;;;22.00;19.00;;;;;;;;5073835;28;45869;-71
2024/01/31 01:08:48;;;;;;;;;27.00;24.33;;;;;;;;5056368;28;45863;-71
2024/01/31 01:11:13;;;;;;;;;23.00;22.00;;;;;;;;5067093;28;45586;-73
2024/01/31 01:13:38;;;;;;;;;21.00;20.33;;;;;;;;5032365;28;45436;-72
2024/01/31 01:16:03;;;;;;;;;31.67;22.33;;;;;;;;5052548;28;46961;-70
2024/01/31 01:18:29;;;;;;;;;21.67;21.67;;;;;;;;5061366;28;46275;-71
2024/01/31 01:20:54;;;;;;;;;21.00;19.67;;;;;;;;5045579;28;45908;-69
2024/01/31 01:23:19;;;;;;;;;27.00;23.67;;;;;;;;5065794;28;45558;-72
2024/01/31 01:25:45;;;;;;;;;25.00;22.00;;;;;;;;5063990;28;45790;-72
2024/01/31 01:28:10;;;;;;;;;26.00;23.00;;;;;;;;5046202;28;46492;-71
2024/01/31 01:30:35;;;;;;;;;19.00;19.00;;;;;;;;5050421;28;45707;-72
2024/01/31 01:33:00;;;;;;;;;20.00;19.00;;;;;;;;5053917;28;45582;-71
2024/01/31 01:35:26;;;;;;;;;17.00;17.00;;;;;;;;5052059;28;45436;-72
2024/01/31 01:37:51;;;;;;;;;16.00;15.00;;;;;;;;5071137;28;46929;-72
2024/01/31 01:40:16;;;;;;;;;16.67;15.67;;;;;;;;5059169;28;45523;-72
2024/01/31 01:42:41;;;;;;;;;15.33;15.33;;;;;;;;5054718;28;45614;-71
2024/01/31 01:45:07;;;;;;;;;8.33;8.33;;;;;;;;5059289;28;45374;-70
2024/01/31 01:47:33;;;;;;;;;13.00;12.00;;;;;;;;5043475;28;47921;-72
2024/01/31 01:49:58;;;;;;;;;15.33;13.00;;;;;;;;5052191;28;45520;-72
2024/01/31 01:52:24;;;;;;;;;14.33;13.67;;;;;;;;5068033;28;45349;-71
2024/01/31 01:54:50;;;;;;;;;15.33;14.67;;;;;;;;5055356;28;47118;-70
2024/01/31 01:57:15;;;;;;;;;19.00;15.00;;;;;;;;5071824;28;46470;-70
2024/01/31 01:59:41;;;;;;;;;22.00;18.33;;;;;;;;5070978;28;45332;-71
2024/01/31 02:02:06;;;;;;;;;19.33;17.00;;;;;;;;5072781;28;45675;-70
2024/01/31 02:04:31;;;;;;;;;21.00;19.67;;;;;;;;5071957;28;45481;-72
2024/01/31 02:06:57;;;;;;;;;21.33;19.00;;;;;;;;5049073;28;48374;-71
2024/01/31 02:09:23;;;;;;;;;18.33;15.67;;;;;;;;5060132;28;45349;-73
2024/01/31 02:11:48;;;;;;;;;21.67;19.67;;;;;;;;5072040;28;45365;-72
2024/01/31 02:14:13;;;;;;;;;19.33;19.33;;;;;;;;5042340;28;46845;-72
2024/01/31 02:16:39;;;;;;;;;20.33;19.33;;;;;;;;5068126;28;45981;-72
2024/01/31 02:19:04;;;;;;;;;19.33;17.33;;;;;;;;5072403;28;45614;-71
2024/01/31 02:21:29;;;;;;;;;16.33;16.33;;;;;;;;5072534;28;45571;-69
2024/01/31 02:23:55;;;;;;;;;16.67;16.67;;;;;;;;5057046;28;45853;-71
2024/01/31 02:26:20;;;;;;;;;13.33;13.33;;;;;;;;5065037;28;46130;-71
2024/01/31 02:28:45;;;;;;;;;16.00;14.33;;;;;;;;5071802;28;45432;-71
2024/01/31 02:31:10;;;;;;;;;32.33;30.00;;;;;;;;5072281;28;46034;-70
2024/01/31 02:33:36;;;;;;;;;16.33;16.33;;;;;;;;5040126;28;47145;-71
2024/01/31 02:36:01;;;;;;;;;16.33;15.67;;;;;;;;5057025;28;45991;-69
2024/01/31 02:38:26;;;;;;;;;20.00;17.00;;;;;;;;5050562;28;45677;-71
2024/01/31 02:40:51;;;;;;;;;21.67;16.00;;;;;;;;5071350;28;45756;-71
2024/01/31 02:43:17;;;;;;;;;28.67;25.33;;;;;;;;5067691;28;45401;-70
2024/01/31 02:45:42;;;;;;;;;28.33;23.33;;;;;;;;5056620;28;45541;-73
2024/01/31 02:48:08;;;;;;;;;27.33;21.33;;;;;;;;5066558;28;45839;-74
2024/01/31 02:50:33;;;;;;;;;27.00;22.00;;;;;;;;5072957;28;45836;-71
2024/01/31 02:52:59;;;;;;;;;25.67;24.33;;;;;;;;5072355;28;45680;-71
2024/01/31 02:55:24;;;;;;;;;25.67;23.33;;;;;;;;5070627;28;45566;-72
2024/01/31 02:57:50;;;;;;;;;24.00;24.00;;;;;;;;5071637;28;45430;-70
2024/01/31 03:00:15;;;;;;;;;27.00;22.33;;;;;;;;5063123;28;45540;-70
2024/01/31 03:02:43;;;;;;;;;18.33;17.00;;;;;;;;5055999;28;45367;-71
2024/01/31 03:05:12;;;;;;;;;27.33;23.00;;;;;;;;5042233;28;48256;-70
2024/01/31 03:07:38;;;;;;;;;24.67;21.00;;;;;;;;5062239;28;45438;-71
2024/01/31 03:10:03;;;;;;;;;32.00;19.00;;;;;;;;5058748;28;45757;-71
2024/01/31 03:12:28;;;;;;;;;24.33;22.67;;;;;;;;5071818;28;46086;-72
2024/01/31 03:14:54;;;;;;;;;23.33;18.33;;;;;;;;5072164;28;46977;-72
2024/01/31 03:17:19;;;;;;;;;19.67;19.67;;;;;;;;5049956;28;45502;-70
2024/01/31 03:19:44;;;;;;;;;27.67;24.33;;;;;;;;5072560;28;45371;-70
2024/01/31 03:22:09;;;;;;;;;20.67;15.00;;;;;;;;5072391;28;45725;-71
2024/01/31 03:24:35;;;;;;;;;26.33;24.33;;;;;;;;5070277;28;45368;-72
2024/01/31 03:27:00;;;;;;;;;28.67;22.67;;;;;;;;5069216;28;45637;-71
2024/01/31 03:29:25;;;;;;;;;20.33;18.00;;;;;;;;5050880;28;45729;-71
2024/01/31 03:31:51;;;;;;;;;21.67;18.67;;;;;;;;5072305;28;45623;-70
2024/01/31 03:34:17;;;;;;;;;25.00;22.67;;;;;;;;5071701;28;45624;-71
2024/01/31 03:36:42;;;;;;;;;24.33;22.67;;;;;;;;5058044;28;45633;-71
2024/01/31 03:39:07;;;;;;;;;26.33;23.00;;;;;;;;5043828;28;46021;-70
2024/01/31 03:41:33;;;;;;;;;25.33;22.67;;;;;;;;5069319;28;45527;-71
2024/01/31 03:43:58;;;;;;;;;29.67;26.33;;;;;;;;5053802;28;47174;-70
2024/01/31 03:46:24;;;;;;;;;30.33;27.67;;;;;;;;5045657;28;45730;-70
2024/01/31 03:48:50;;;;;;;;;30.33;24.00;;;;;;;;5055862;28;45439;-70
2024/01/31 03:51:21;;;;;;;;;28.33;26.67;;;;;;;;5072521;28;45570;-69
2024/01/31 03:53:47;;;;;;;;;24.33;23.33;;;;;;;;5071420;28;46275;-70
2024/01/31 03:56:13;;;;;;;;;31.00;24.33;;;;;;;;5072023;28;45823;-71
2024/01/31 03:58:39;;;;;;;;;20.67;19.33;;;;;;;;5065503;28;45385;-70
2024/01/31 04:01:04;;;;;;;;;19.00;16.67;;;;;;;;5067445;28;45595;-70
2024/01/31 04:03:29;;;;;;;;;22.67;21.00;;;;;;;;5046623;28;46145;-72
2024/01/31 04:05:55;;;;;;;;;23.67;23.67;;;;;;;;5049765;28;45416;-70
2024/01/31 04:08:21;;;;;;;;;25.67;22.67;;;;;;;;5048749;28;45801;-73
2024/01/31 04:10:46;;;;;;;;;24.67;21.00;;;;;;;;5057398;28;45411;-72
2024/01/31 04:13:11;;;;;;;;;27.67;23.00;;;;;;;;5059855;28;47248;-74
2024/01/31 04:15:37;;;;;;;;;22.00;21.67;;;;;;;;5065559;28;45798;-73
2024/01/31 04:18:03;;;;;;;;;20.33;19.33;;;;;;;;5053740;28;45378;-73
2024/01/31 04:20:28;;;;;;;;;34.00;27.67;;;;;;;;5048956;28;45492;-72
2024/01/31 04:22:53;;;;;;;;;21.33;21.33;;;;;;;;5046451;28;46417;-73
2024/01/31 04:25:18;;;;;;;;;19.67;18.00;;;;;;;;5036292;28;45786;-73
2024/01/31 04:27:44;;;;;;;;;21.00;18.33;;;;;;;;5054977;28;45704;-73
2024/01/31 04:30:10;;;;;;;;;21.33;17.00;;;;;;;;5070373;28;45592;-72
2024/01/31 04:32:35;;;;;;;;;23.33;20.00;;;;;;;;5046835;28;47063;-72
2024/01/31 04:35:00;;;;;;;;;24.00;21.33;;;;;;;;5046998;28;45366;-73
2024/01/31 04:37:26;;;;;;;;;26.33;23.33;;;;;;;;5043707;28;45813;-73
2024/01/31 04:39:51;;;;;;;;;18.33;17.33;;;;;;;;5060427;28;45606;-72
2024/01/31 04:42:17;;;;;;;;;18.00;17.33;;;;;;;;5055968;28;48013;-71
2024/01/31 04:44:45;;;;;;;;;28.67;25.67;;;;;;;;5060620;28;45741;-73
2024/01/31 04:47:10;;;;;;;;;20.33;20.33;;;;;;;;5046087;28;45429;-74
2024/01/31 04:49:35;;;;;;;;;22.00;19.33;;;;;;;;5053758;28;45358;-73
2024/01/31 04:52:01;;;;;;;;;18.67;17.33;;;;;;;;5042772;28;45629;-72
2024/01/31 04:54:27;;;;;;;;;22.67;19.00;;;;;;;;5062813;28;45729;-72
2024/01/31 04:56:52;;;;;;;;;20.00;17.00;;;;;;;;5061729;28;45628;-72
2024/01/31 04:59:17;;;;;;;;;21.67;19.67;;;;;;;;5059534;28;45602;-72
2024/01/31 05:01:43;;;;;;;;;16.67;15.67;;;;;;;;5051623;28;45762;-72
2024/01/31 05:04:08;;;;;;;;;18.67;15.33;;;;;;;;5054181;28;45467;-73
2024/01/31 05:06:33;;;;;;;;;16.67;14.67;;;;;;;;5063787;28;45520;-73
2024/01/31 05:08:59;;;;;;;;;19.00;16.00;;;;;;;;5050820;28;45671;-73
2024/01/31 05:11:24;;;;;;;;;14.33;14.33;;;;;;;;5050208;28;46667;-72
2024/01/31 05:13:49;;;;;;;;;16.00;11.00;;;;;;;;5058423;28;45658;-72
2024/01/31 05:16:14;;;;;;;;;14.00;14.00;;;;;;;;5041951;28;45702;-73
2024/01/31 05:18:40;;;;;;;;;27.33;22.00;;;;;;;;5052436;28;45685;-71
2024/01/31 05:21:10;;;;;;;;;16.00;13.33;;;;;;;;5041238;28;47240;-70
2024/01/31 05:23:36;;;;;;;;;19.33;14.00;;;;;;;;5046313;28;45813;-70
2024/01/31 05:26:06;;;;;;;;;12.33;11.00;;;;;;;;5052967;28;45529;-70
2024/01/31 05:28:32;;;;;;;;;12.67;12.67;;;;;;;;5048754;28;45842;-71
2024/01/31 05:30:57;;;;;;;;;14.33;12.67;;;;;;;;5059612;28;46103;-70
2024/01/31 05:33:22;;;;;;;;;18.00;15.00;;;;;;;;5047740;28;45784;-70
2024/01/31 05:35:47;;;;;;;;;18.00;16.00;;;;;;;;5050783;28;45301;-69
2024/01/31 05:38:13;;;;;;;;;21.33;16.67;;;;;;;;5073856;27;46214;-69
2024/01/31 05:40:38;;;;;;;;;38.00;32.33;;;;;;;;5061793;28;45702;-70
2024/01/31 05:43:04;;;;;;;;;24.67;23.33;;;;;;;;5070532;28;45281;-70
2024/01/31 05:45:29;;;;;;;;;23.67;22.00;;;;;;;;5031451;28;45694;-70
2024/01/31 05:47:54;;;;;;;;;21.00;19.33;;;;;;;;5064215;28;45532;-70
2024/01/31 05:50:19;;;;;;;;;20.67;18.33;;;;;;;;5056681;28;46077;-70
2024/01/31 05:52:45;;;;;;;;;23.33;18.00;;;;;;;;5055938;28;45999;-70
2024/01/31 05:55:14;;;;;;;;;21.67;16.33;;;;;;;;5053141;28;45530;-70
2024/01/31 05:57:39;;;;;;;;;20.33;18.00;;;;;;;;5058736;28;46673;-72
2024/01/31 06:00:09;;;;;;;;;20.00;18.00;;;;;;;;5063373;28;45342;-72
2024/01/31 06:02:34;;;;;;;;;13.33;12.67;;;;;;;;5072515;28;45687;-71
2024/01/31 06:04:59;;;;;;;;;17.00;13.67;;;;;;;;5069417;28;45654;-70
2024/01/31 06:07:24;;;;;;;;;9.33;7.00;;;;;;;;5062138;28;45696;-71
2024/01/31 06:09:50;;;;;;;;;21.00;17.00;;;;;;;;5058669;28;45944;-70
2024/01/31 06:12:15;;;;;;;;;15.67;13.67;;;;;;;;5073333;28;45775;-71
2024/01/31 06:14:40;;;;;;;;;16.00;14.33;;;;;;;;5068601;27;45839;-70
2024/01/31 06:17:06;;;;;;;;;18.33;16.00;;;;;;;;5060483;28;45567;-71
2024/01/31 06:22:22;;;;;;;;;14.00;12.67;;;;;;;;5042998;28;45453;-68
2024/01/31 06:24:48;;;;;;;;;13.00;10.00;;;;;;;;5067189;28;45524;-71
2024/01/31 06:27:16;;;;;;;;;16.67;14.67;;;;;;;;5065638;28;45754;-71
2024/01/31 06:29:41;;;;;;;;;13.00;11.00;;;;;;;;5042520;28;46416;-68
2024/01/31 06:32:07;;;;;;;;;15.33;13.67;;;;;;;;5054565;28;45440;-69
2024/01/31 06:34:32;;;;;;;;;15.67;12.33;;;;;;;;5072148;28;45500;-69
2024/01/31 06:36:57;;;;;;;;;14.00;12.33;;;;;;;;5073045;28;45653;-67
2024/01/31 06:39:22;;;;;;;;;16.67;16.00;;;;;;;;5071679;28;45977;-72
2024/01/31 06:41:48;;;;;;;;;18.67;17.67;;;;;;;;5071909;28;45464;-71
2024/01/31 06:44:13;;;;;;;;;17.67;16.00;;;;;;;;5048937;28;45560;-69
2024/01/31 06:46:38;;;;;;;;;12.33;10.33;;;;;;;;5067944;28;45522;-69
2024/01/31 06:49:04;;;;;;;;;20.33;17.00;;;;;;;;5070984;28;46089;-72
2024/01/31 06:51:29;;;;;;;;;15.33;13.00;;;;;;;;5058756;28;46004;-66
2024/01/31 06:53:54;;;;;;;;;14.67;12.00;;;;;;;;5044521;28;45640;-69
2024/01/31 06:56:20;;;;;;;;;14.00;11.33;;;;;;;;5071130;28;46410;-69
2024/01/31 06:58:46;;;;;;;;;11.33;10.00;;;;;;;;5071636;28;46986;-71
2024/01/31 07:01:17;;;;;;;;;10.00;10.00;;;;;;;;5070507;28;45385;-71
2024/01/31 07:03:43;;;;;;;;;15.00;15.00;;;;;;;;5053812;28;45457;-70
2024/01/31 07:06:10;;;;;;;;;16.00;13.00;;;;;;;;5057215;28;45681;-70
2024/01/31 07:08:35;;;;;;;;;18.00;14.67;;;;;;;;5022211;28;46218;-70
2024/01/31 07:11:00;;;;;;;;;20.33;16.33;;;;;;;;5023355;28;46025;-69
2024/01/31 07:13:25;;;;;;;;;16.33;13.33;;;;;;;;5056420;28;45396;-70
2024/01/31 07:15:50;;;;;;;;;19.00;16.00;;;;;;;;5052209;28;45303;-70
2024/01/31 07:18:16;;;;;;;;;13.67;12.00;;;;;;;;5048768;28;46072;-70
2024/01/31 07:20:41;;;;;;;;;23.00;16.33;;;;;;;;5046793;28;45855;-69
2024/01/31 07:23:07;;;;;;;;;16.33;15.33;;;;;;;;5064322;28;45835;-68
2024/01/31 07:25:32;;;;;;;;;25.00;16.67;;;;;;;;5054843;28;45612;-66
2024/01/31 07:27:57;;;;;;;;;19.33;14.67;;;;;;;;5055970;28;46093;-68
2024/01/31 07:30:22;;;;;;;;;22.67;19.00;;;;;;;;5059906;28;45787;-70
2024/01/31 07:32:47;;;;;;;;;18.67;16.33;;;;;;;;5068791;28;45297;-69
2024/01/31 07:35:13;;;;;;;;;22.00;18.33;;;;;;;;5070114;28;45598;-68
2024/01/31 07:37:39;;;;;;;;;22.00;17.67;;;;;;;;5042811;28;47232;-69
2024/01/31 07:40:06;;;;;;;;;36.00;28.00;;;;;;;;5041147;28;45422;-69
2024/01/31 07:42:32;;;;;;;;;34.50;29.00;;;;;;;;5061001;28;45733;-69
2024/01/31 07:44:57;;;;;;;;;30.33;23.67;;;;;;;;5032524;28;45895;-68
2024/01/31 07:47:22;;;;;;;;;32.67;24.00;;;;;;;;5070052;28;46196;-69
2024/01/31 07:49:47;;;;;;;;;25.33;24.33;;;;;;;;5070585;28;45526;-67
2024/01/31 07:52:12;;;;;;;;;28.33;25.00;;;;;;;;5070648;28;45388;-69
2024/01/31 07:54:39;;;;;;;;;35.67;29.00;;;;;;;;5064460;28;45797;-70
2024/01/31 07:57:04;;;;;;;;;25.67;23.00;;;;;;;;5071727;28;45611;-68
2024/01/31 07:59:29;;;;;;;;;25.67;23.67;;;;;;;;5070270;28;45693;-68
2024/01/31 08:01:55;;;;;;;;;38.33;33.33;;;;;;;;5045948;28;45394;-68
2024/01/31 08:04:20;;;;;;;;;27.33;23.67;;;;;;;;5042612;28;47512;-68
2024/01/31 08:06:45;;;;;;;;;29.00;24.33;;;;;;;;5069909;28;46746;-70
2024/01/31 08:09:11;;;;;;;;;29.33;24.67;;;;;;;;5070741;28;45680;-69
2024/01/31 08:11:43;;;;;;;;;26.33;19.67;;;;;;;;5047636;28;45728;-69
2024/01/31 08:14:09;;;;;;;;;29.67;23.00;;;;;;;;5073241;28;45513;-68
2024/01/31 08:16:34;;;;;;;;;27.00;26.33;;;;;;;;5074004;28;46161;-68
2024/01/31 08:18:59;;;;;;;;;31.00;24.00;;;;;;;;5074443;28;45646;-71
2024/01/31 08:21:25;;;;;;;;;28.00;24.33;;;;;;;;5069702;28;45791;-70
2024/01/31 08:23:50;;;;;;;;;31.33;26.67;;;;;;;;5069134;28;45373;-69
2024/01/31 08:26:17;;;;;;;;;32.33;29.33;;;;;;;;5063329;28;45913;-70
2024/01/31 08:28:42;;;;;;;;;34.33;29.33;;;;;;;;5058959;28;45385;-68
2024/01/31 08:31:07;;;;;;;;;35.33;30.67;;;;;;;;5057964;28;45962;-70
2024/01/31 08:33:33;;;;;;;;;38.00;32.33;;;;;;;;5074232;28;45419;-69
2024/01/31 08:35:58;;;;;;;;;36.00;31.33;;;;;;;;5072909;28;45785;-70
2024/01/31 08:38:23;;;;;;;;;39.67;30.33;;;;;;;;5074674;28;45328;-68
2024/01/31 08:40:48;;;;;;;;;29.33;22.67;;;;;;;;5074193;28;45309;-69
2024/01/31 08:43:13;;;;;;;;;21.67;19.67;;;;;;;;5063834;28;45487;-68
2024/01/31 08:45:39;;;;;;;;;30.00;27.33;;;;;;;;5053227;28;45636;-69
2024/01/31 08:48:04;;;;;;;;;41.00;32.67;;;;;;;;5063479;28;45600;-68
2024/01/31 08:50:30;;;;;;;;;29.33;29.00;;;;;;;;5072841;28;45820;-68
2024/01/31 08:52:55;;;;;;;;;31.33;30.00;;;;;;;;5062541;28;45871;-69
2024/01/31 08:55:20;;;;;;;;;31.00;28.33;;;;;;;;5069300;28;46005;-68
2024/01/31 08:57:46;;;;;;;;;29.00;25.00;;;;;;;;5074064;28;45901;-68
2024/01/31 09:00:11;;;;;;;;;29.67;25.00;;;;;;;;5073953;28;45387;-68
2024/01/31 09:02:36;;;;;;;;;31.67;23.67;;;;;;;;5074007;28;45467;-68
2024/01/31 09:05:02;;;;;;;;;34.67;31.67;;;;;;;;5041933;28;46868;-68
2024/01/31 09:07:28;;;;;;;;;29.00;24.00;;;;;;;;5035673;28;45395;-67
2024/01/31 09:09:53;;;;;;;;;30.67;27.67;;;;;;;;5054274;28;45818;-68
2024/01/31 09:12:19;;;;;;;;;35.00;31.00;;;;;;;;5055890;28;45429;-69
2024/01/31 09:14:44;;;;;;;;;32.67;30.00;;;;;;;;5073016;28;45784;-69
2024/01/31 09:17:10;;;;;;;;;43.33;33.00;;;;;;;;5073718;28;45554;-69
2024/01/31 09:19:35;;;;;;;;;39.67;31.00;;;;;;;;5063806;28;45910;-69
2024/01/31 09:22:00;;;;;;;;;34.00;30.00;;;;;;;;5072279;28;45776;-68
2024/01/31 09:24:25;;;;;;;;;39.00;28.33;;;;;;;;5070445;28;45460;-68
2024/01/31 09:26:51;;;;;;;;;32.00;27.00;;;;;;;;5043196;28;45364;-68
2024/01/31 09:29:16;;;;;;;;;31.67;29.67;;;;;;;;5042005;28;45606;-68
2024/01/31 09:31:41;;;;;;;;;27.67;26.33;;;;;;;;5052847;28;45889;-69
2024/01/31 09:34:07;;;;;;;;;37.00;31.00;;;;;;;;5053662;28;45732;-69
2024/01/31 09:36:33;;;;;;;;;34.67;27.67;;;;;;;;5054673;28;45668;-69
2024/01/31 09:38:58;;;;;;;;;34.67;29.00;;;;;;;;5038698;28;45731;-69
2024/01/31 09:41:23;;;;;;;;;22.67;21.67;;;;;;;;5034496;28;46689;-69
2024/01/31 09:43:51;;;;;;;;;28.33;22.00;;;;;;;;5070971;28;46114;-70
2024/01/31 09:46:16;;;;;;;;;21.00;17.00;;;;;;;;5046860;28;45466;-70
2024/01/31 09:48:42;;;;;;;;;17.67;16.33;;;;;;;;5048901;28;45756;-69
2024/01/31 09:51:07;;;;;;;;;16.33;10.00;;;;;;;;5040177;28;45546;-69
2024/01/31 09:53:34;;;;;;;;;11.00;10.00;;;;;;;;5053784;28;45495;-69
2024/01/31 09:56:00;;;;;;;;;11.33;9.67;;;;;;;;5054545;28;45656;-70
2024/01/31 09:58:25;;;;;;;;;12.33;12.33;;;;;;;;5045831;28;45714;-69
2024/01/31 10:00:51;;;;;;;;;10.00;9.67;;;;;;;;5073474;28;45452;-69
2024/01/31 10:03:16;;;;;;;;;11.67;11.67;;;;;;;;5072993;28;46383;-69
2024/01/31 10:05:42;;;;;;;;;12.00;10.67;;;;;;;;5071906;28;45691;-69
2024/01/31 10:08:07;;;;;;;;;11.00;10.33;;;;;;;;5059204;28;45545;-69
2024/01/31 10:10:32;;;;;;;;;12.00;11.67;;;;;;;;5072375;28;45604;-69
2024/01/31 10:12:58;;;;;;;;;10.00;10.00;;;;;;;;5038570;28;47674;-69
2024/01/31 10:15:24;;;;;;;;;12.33;9.67;;;;;;;;5038404;28;45380;-69
2024/01/31 10:17:49;;;;;;;;;10.00;8.67;;;;;;;;5070593;28;45766;-68
2024/01/31 10:20:14;;;;;;;;;12.33;10.67;;;;;;;;5059409;28;45512;-70
2024/01/31 10:22:40;;;;;;;;;11.67;10.00;;;;;;;;5044208;28;48032;-68
2024/01/31 10:25:06;;;;;;;;;10.33;9.33;;;;;;;;5065011;28;45672;-69
2024/01/31 10:27:33;;;;;;;;;11.33;11.33;;;;;;;;5071384;28;46042;-70
2024/01/31 10:29:59;;;;;;;;;10.33;10.33;;;;;;;;5044184;28;46853;-70
2024/01/31 10:32:24;;;;;;;;;13.00;9.33;;;;;;;;5072172;28;45589;-67
2024/01/31 10:34:50;;;;;;;;;11.33;10.33;;;;;;;;5040934;28;45477;-69
2024/01/31 10:37:18;;;;;;;;;11.00;9.33;;;;;;;;5046352;28;45690;-69
2024/01/31 10:39:45;;;;;;;;;7.00;7.00;;;;;;;;5068342;28;45789;-72
2024/01/31 10:42:11;;;;;;;;;15.00;10.33;;;;;;;;5070958;28;45507;-71
2024/01/31 10:44:36;;;;;;;;;12.33;11.00;;;;;;;;5069225;28;45909;-71
2024/01/31 10:47:01;;;;;;;;;12.33;10.00;;;;;;;;5066130;28;45569;-72
2024/01/31 10:49:27;;;;;;;;;9.67;9.00;;;;;;;;5056344;28;45503;-70
2024/01/31 10:51:55;;;;;;;;;10.00;9.67;;;;;;;;5068389;28;45902;-73
2024/01/31 10:54:22;;;;;;;;;9.33;9.33;;;;;;;;5058853;28;45740;-71
2024/01/31 10:56:48;;;;;;;;;6.33;6.33;;;;;;;;5064227;28;45631;-72
2024/01/31 10:59:13;;;;;;;;;9.33;9.33;;;;;;;;5046085;28;46119;-72
2024/01/31 11:01:48;;;;;;;;;10.00;10.00;;;;;;;;5068798;28;45313;-73
2024/01/31 11:04:13;;;;;;;;;15.00;14.00;;;;;;;;5047336;28;45659;-72
2024/01/31 11:06:40;;;;;;;;;12.33;11.00;;;;;;;;5062055;28;45523;-69
2024/01/31 11:09:05;;;;;;;;;16.33;15.00;;;;;;;;5070728;28;45634;-69
2024/01/31 11:11:30;;;;;;;;;13.67;13.67;;;;;;;;5069393;28;45794;-70
2024/01/31 11:14:06;;;;;;;;;13.00;12.00;;;;;;;;5063812;28;45753;-70
2024/01/31 11:16:31;;;;;;;;;16.67;12.67;;;;;;;;5038444;28;45876;-70
2024/01/31 11:18:56;;;;;;;;;17.67;16.00;;;;;;;;5047469;28;46174;-70
2024/01/31 11:21:22;;;;;;;;;11.00;11.00;;;;;;;;5068408;28;45723;-70
2024/01/31 11:23:47;;;;;;;;;19.33;17.33;;;;;;;;5050986;28;45763;-72
2024/01/31 11:26:13;;;;;;;;;29.00;22.00;;;;;;;;5043275;28;45690;-74
2024/01/31 11:28:44;;;;;;;;;25.67;19.00;;;;;;;;5047972;28;45374;-74
2024/01/31 11:31:10;;;;;;;;;21.33;18.33;;;;;;;;5051126;28;45991;-75
2024/01/31 11:33:35;;;;;;;;;17.33;15.00;;;;;;;;5033204;28;45412;-73
2024/01/31 11:36:01;;;;;;;;;16.67;15.33;;;;;;;;5050050;28;45363;-70
2024/01/31 11:38:26;;;;;;;;;18.33;18.00;;;;;;;;5032903;28;46223;-70
2024/01/31 11:40:52;;;;;;;;;26.67;21.67;;;;;;;;5049392;28;46693;-74
2024/01/31 11:43:20;;;;;;;;;26.33;24.67;;;;;;;;5049164;28;45975;-72
2024/01/31 11:45:47;;;;;;;;;18.50;16.50;;;;;;;;5051452;28;45401;-70
2024/01/31 11:48:15;;;;;;;;;27.33;21.67;;;;;;;;5027115;28;46144;-71
2024/01/31 11:50:41;;;;;;;;;18.00;14.00;;;;;;;;5059128;28;46594;-71
2024/01/31 11:53:07;;;;;;;;;14.00;13.33;;;;;;;;5053634;28;45748;-70
2024/01/31 11:55:33;;;;;;;;;15.67;11.00;;;;;;;;5036763;28;45398;-71
2024/01/31 11:57:58;;;;;;;;;14.33;12.67;;;;;;;;5063890;28;45526;-71
2024/01/31 12:00:23;;;;;;;;;17.67;16.00;;;;;;;;5035078;28;47951;-71
2024/01/31 12:02:49;;;;;;;;;28.00;22.67;;;;;;;;5056534;28;46220;-72
2024/01/31 12:05:14;;;;;;;;;15.00;13.67;;;;;;;;5054023;28;45522;-71
2024/01/31 12:07:40;;;;;;;;;18.67;18.00;;;;;;;;5052241;28;45506;-71
2024/01/31 12:10:08;;;;;;;;;12.00;12.00;;;;;;;;5052745;28;46156;-70
2024/01/31 12:12:41;;;;;;;;;12.00;10.67;;;;;;;;5053981;28;45790;-71
2024/01/31 12:15:06;;;;;;;;;24.00;19.00;;;;;;;;5046689;28;45754;-71
2024/01/31 12:17:32;;;;;;;;;17.00;12.67;;;;;;;;5044743;28;45459;-68
2024/01/31 12:20:04;;;;;;;;;15.33;12.67;;;;;;;;5034369;28;46034;-69
2024/01/31 12:22:30;;;;;;;;;14.33;13.33;;;;;;;;5036624;28;45721;-72
2024/01/31 12:24:55;;;;;;;;;17.00;14.67;;;;;;;;5038908;28;46010;-71
2024/01/31 12:27:21;;;;;;;;;23.33;18.33;;;;;;;;5034559;28;45815;-70
2024/01/31 12:29:48;;;;;;;;;15.33;15.33;;;;;;;;5034809;28;45909;-70
2024/01/31 12:32:13;;;;;;;;;17.00;14.33;;;;;;;;5033814;28;45378;-74
2024/01/31 12:34:38;;;;;;;;;18.00;18.00;;;;;;;;5039536;28;45362;-70
2024/01/31 12:37:04;;;;;;;;;14.33;12.33;;;;;;;;5044129;28;45644;-72
2024/01/31 12:39:29;;;;;;;;;20.33;16.33;;;;;;;;5035185;28;45659;-70
2024/01/31 12:41:54;;;;;;;;;16.33;14.67;;;;;;;;5016506;28;45383;-70
2024/01/31 12:44:20;;;;;;;;;18.67;15.67;;;;;;;;5034189;28;45614;-69
2024/01/31 12:46:45;;;;;;;;;14.33;13.33;;;;;;;;5035916;28;45678;-72
2024/01/31 12:49:11;;;;;;;;;17.00;15.33;;;;;;;;5039545;28;46200;-72
2024/01/31 12:51:36;;;;;;;;;16.00;14.00;;;;;;;;5034542;28;45852;-69
2024/01/31 12:54:01;;;;;;;;;20.00;17.00;;;;;;;;5033761;28;46475;-72
2024/01/31 12:56:27;;;;;;;;;17.00;17.00;;;;;;;;5043223;28;45428;-70
2024/01/31 12:58:53;;;;;;;;;17.33;13.33;;;;;;;;5032881;28;45531;-72
2024/01/31 13:01:19;;;;;;;;;17.67;15.67;;;;;;;;5020401;28;45862;-71
2024/01/31 13:03:44;;;;;;;;;14.67;12.33;;;;;;;;5022214;28;45521;-73
2024/01/31 13:06:10;;;;;;;;;16.33;13.00;;;;;;;;5039831;28;45445;-70
2024/01/31 13:08:35;;;;;;;;;16.33;14.00;;;;;;;;5039451;28;46184;-74
2024/01/31 13:11:01;;;;;;;;;13.00;11.67;;;;;;;;5032674;28;45572;-70
2024/01/31 13:13:27;;;;;;;;;14.33;13.00;;;;;;;;5039754;28;45667;-72
2024/01/31 13:15:52;;;;;;;;;16.33;12.00;;;;;;;;5050358;28;45767;-70
2024/01/31 13:18:17;;;;;;;;;15.33;13.67;;;;;;;;5051249;28;46331;-74
2024/01/31 13:20:42;;;;;;;;;17.00;14.67;;;;;;;;5043069;28;45624;-72
2024/01/31 13:23:08;;;;;;;;;13.67;11.67;;;;;;;;5023784;28;45415;-73
2024/01/31 13:25:33;;;;;;;;;8.33;6.67;;;;;;;;5043116;28;45255;-70
2024/01/31 13:27:58;;;;;;;;;12.33;11.00;;;;;;;;5017613;28;47712;-71
2024/01/31 13:30:23;;;;;;;;;13.67;10.00;;;;;;;;5048530;28;45385;-68
2024/01/31 13:32:51;;;;;;;;;8.67;8.00;;;;;;;;5048474;28;45417;-70
2024/01/31 13:35:17;;;;;;;;;11.33;9.33;;;;;;;;5040408;28;45519;-73
2024/01/31 13:37:51;;;;;;;;;9.33;8.33;;;;;;;;5033201;28;47782;-71
2024/01/31 13:40:17;;;;;;;;;11.00;8.33;;;;;;;;5037429;28;45845;-72
2024/01/31 13:42:42;;;;;;;;;8.33;6.67;;;;;;;;5032982;28;46170;-72
2024/01/31 13:45:08;;;;;;;;;6.00;6.00;;;;;;;;5030604;28;45613;-72
2024/01/31 13:47:35;;;;;;;;;10.67;7.33;;;;;;;;5047401;28;46298;-70
2024/01/31 13:50:04;;;;;;;;;7.67;7.67;;;;;;;;5033406;28;45874;-73
2024/01/31 13:52:29;;;;;;;;;11.00;8.33;;;;;;;;5033449;28;45462;-70
2024/01/31 13:54:54;;;;;;;;;12.00;11.00;;;;;;;;5051618;28;45317;-73
2024/01/31 13:57:20;;;;;;;;;6.33;5.33;;;;;;;;5050410;28;45456;-68
2024/01/31 13:59:45;;;;;;;;;11.00;9.00;;;;;;;;5033757;28;45339;-75
2024/01/31 14:02:11;;;;;;;;;10.00;10.00;;;;;;;;5045297;28;45375;-72
2024/01/31 14:04:36;;;;;;;;;9.67;9.67;;;;;;;;5047784;28;45388;-70
2024/01/31 14:07:01;;;;;;;;;10.67;8.00;;;;;;;;5050753;28;46477;-73
2024/01/31 14:09:27;;;;;;;;;11.67;9.00;;;;;;;;5036326;28;45390;-70
2024/01/31 14:11:52;;;;;;;;;10.67;10.00;;;;;;;;5047409;28;45612;-74